Terminal Aerodrome Forecast
Issued by NWS Mobile, AL

Current Version | Previous Version | Text Only | Print | Product List | Glossary On
Versions: 1 2 3 4 5 6 7 8 9 10 11 12 13 14 15 16 17 18 19 20 21 22 23 24 25 26 27 28
000
FTUS44 KMOB 272300
TAFMOB
TAF
KMOB 272320Z 2800/2824 09008KT 2SM +TSRA BR VCTS BKN004 OVC008CB
     FM280400 14009KT 2SM -RA BR OVC004
     FM280600 15008KT 1 1/2SM BR OVC001
     FM281700 23005KT P6SM OVC015=

USA.gov is the U.S. government's official web portal to all federal, state and local government web resources and services.